sensor_id;sensor_type;location;lat;lon;timestamp;pressure;altitude;pressure_sealevel;temperature;humidity
11041;BME280;5573;49.592;8.662;2022-09-21T00:02:25;100709.31;;;7.73;100.00
11041;BME280;5573;49.592;8.662;2022-09-21T00:05:14;100705.56;;;7.65;100.00
11041;BME280;5573;49.592;8.662;2022-09-21T00:08:04;100703.81;;;7.61;100.00
11041;BME280;5573;49.592;8.662;2022-09-21T00:10:52;100711.34;;;7.51;100.00
11041;BME280;5573;49.592;8.662;2022-09-21T00:13:40;100711.44;;;7.43;100.00
11041;BME280;5573;49.592;8.662;2022-09-21T00:16:29;100707.66;;;7.35;100.00
11041;BME280;5573;49.592;8.662;2022-09-21T00:19:18;100714.00;;;7.27;100.00
11041;BME280;5573;49.592;8.662;2022-09-21T00:22:07;100707.41;;;7.28;100.00
11041;BME280;5573;49.592;8.662;2022-09-21T00:24:55;100720.28;;;7.27;100.00
11041;BME280;5573;49.592;8.662;2022-09-21T00:27:43;100710.34;;;7.23;100.00
11041;BME280;5573;49.592;8.662;2022-09-21T00:30:33;100706.75;;;7.10;100.00
11041;BME280;5573;49.592;8.662;2022-09-21T00:33:21;100723.16;;;7.10;100.00
11041;BME280;5573;49.592;8.662;2022-09-21T00:36:12;100716.13;;;7.09;100.00
11041;BME280;5573;49.592;8.662;2022-09-21T00:39:02;100722.47;;;7.01;100.00
11041;BME280;5573;49.592;8.662;2022-09-21T00:41:50;100721.84;;;6.95;100.00
11041;BME280;5573;49.592;8.662;2022-09-21T00:44:39;100716.59;;;6.90;100.00
11041;BME280;5573;49.592;8.662;2022-09-21T00:47:31;100722.25;;;6.85;100.00
11041;BME280;5573;49.592;8.662;2022-09-21T00:50:21;100721.13;;;6.86;100.00
11041;BME280;5573;49.592;8.662;2022-09-21T00:53:10;100724.53;;;6.83;100.00
11041;BME280;5573;49.592;8.662;2022-09-21T00:56:02;100633.44;;;6.28;100.00
11041;BME280;5573;49.592;8.662;2022-09-21T00:58:52;100721.53;;;6.76;100.00
11041;BME280;5573;49.592;8.662;2022-09-21T01:01:41;100723.78;;;6.74;100.00
11041;BME280;5573;49.592;8.662;2022-09-21T01:04:30;100720.91;;;6.70;100.00
11041;BME280;5573;49.592;8.662;2022-09-21T01:07:21;100724.88;;;6.60;100.00
11041;BME280;5573;49.592;8.662;2022-09-21T01:10:14;100723.72;;;6.61;100.00
11041;BME280;5573;49.592;8.662;2022-09-21T01:13:12;100731.44;;;6.59;100.00
11041;BME280;5573;49.592;8.662;2022-09-21T01:16:06;100724.94;;;6.51;100.00
11041;BME280;5573;49.592;8.662;2022-09-21T01:19:06;100723.53;;;6.45;100.00
11041;BME280;5573;49.592;8.662;2022-09-21T01:22:03;100724.78;;;6.48;100.00
11041;BME280;5573;49.592;8.662;2022-09-21T01:25:04;100728.16;;;6.45;100.00
11041;BME280;5573;49.592;8.662;2022-09-21T01:28:03;100726.78;;;6.60;100.00
11041;BME280;5573;49.592;8.662;2022-09-21T01:30:59;100726.31;;;6.58;100.00
11041;BME280;5573;49.592;8.662;2022-09-21T01:33:53;100721.84;;;6.53;100.00
11041;BME280;5573;49.592;8.662;2022-09-21T01:36:46;100723.78;;;6.53;100.00
11041;BME280;5573;49.592;8.662;2022-09-21T01:39:35;100723.78;;;6.53;100.00
11041;BME280;5573;49.592;8.662;2022-09-21T01:42:26;100725.72;;;6.52;100.00
11041;BME280;5573;49.592;8.662;2022-09-21T01:45:18;100723.84;;;6.44;100.00
11041;BME280;5573;49.592;8.662;2022-09-21T01:48:09;100728.31;;;6.48;100.00
11041;BME280;5573;49.592;8.662;2022-09-21T01:51:02;100698.22;;;6.27;100.00
11041;BME280;5573;49.592;8.662;2022-09-21T01:53:55;100720.91;;;6.49;100.00
11041;BME280;5573;49.592;8.662;2022-09-21T01:56:46;100726.38;;;6.49;100.00
11041;BME280;5573;49.592;8.662;2022-09-21T01:59:45;100721.09;;;6.44;100.00
11041;BME280;5573;49.592;8.662;2022-09-21T02:02:38;100726.84;;;6.51;100.00
11041;BME280;5573;49.592;8.662;2022-09-21T02:05:30;100724.25;;;6.55;100.00
11041;BME280;5573;49.592;8.662;2022-09-21T02:08:19;100724.09;;;6.51;100.00
11041;BME280;5573;49.592;8.662;2022-09-21T02:11:07;100727.78;;;6.55;100.00
11041;BME280;5573;49.592;8.662;2022-09-21T02:13:58;100727.13;;;6.58;100.00
11041;BME280;5573;49.592;8.662;2022-09-21T02:16:53;100726.13;;;6.63;100.00
11041;BME280;5573;49.592;8.662;2022-09-21T02:19:47;100721.38;;;6.72;100.00
11041;BME280;5573;49.592;8.662;2022-09-21T02:22:40;100721.75;;;6.70;100.00
11041;BME280;5573;49.592;8.662;2022-09-21T02:25:38;100717.59;;;6.64;100.00
11041;BME280;5573;49.592;8.662;2022-09-21T02:28:42;100726.50;;;6.53;100.00
11041;BME280;5573;49.592;8.662;2022-09-21T02:31:35;100718.84;;;6.46;100.00
11041;BME280;5573;49.592;8.662;2022-09-21T02:34:29;100720.97;;;6.40;100.00
11041;BME280;5573;49.592;8.662;2022-09-21T02:37:24;100721.63;;;6.37;100.00
11041;BME280;5573;49.592;8.662;2022-09-21T02:40:23;100719.69;;;6.38;100.00
11041;BME280;5573;49.592;8.662;2022-09-21T02:43:18;100720.63;;;6.42;100.00
11041;BME280;5573;49.592;8.662;2022-09-21T02:46:12;100719.22;;;6.36;100.00
11041;BME280;5573;49.592;8.662;2022-09-21T02:49:03;100716.97;;;6.38;100.00
11041;BME280;5573;49.592;8.662;2022-09-21T02:51:57;100717.13;;;6.41;100.00
11041;BME280;5573;49.592;8.662;2022-09-21T02:54:48;100726.19;;;6.54;100.00
11041;BME280;5573;49.592;8.662;2022-09-21T02:57:39;100718.84;;;6.46;100.00
11041;BME280;5573;49.592;8.662;2022-09-21T03:00:28;100720.31;;;6.43;100.00
11041;BME280;5573;49.592;8.662;2022-09-21T03:03:17;100721.63;;;6.37;100.00
11041;BME280;5573;49.592;8.662;2022-09-21T03:06:06;100721.00;;;6.31;100.00
11041;BME280;5573;49.592;8.662;2022-09-21T03:08:54;100715.88;;;6.30;100.00
11041;BME280;5573;49.592;8.662;2022-09-21T03:11:44;100723.28;;;6.29;100.00
11041;BME280;5573;49.592;8.662;2022-09-21T03:14:33;100721.22;;;6.26;100.00
11041;BME280;5573;49.592;8.662;2022-09-21T03:17:21;100715.44;;;6.19;100.00
11041;BME280;5573;49.592;8.662;2022-09-21T03:20:09;100726.44;;;6.10;100.00
11041;BME280;5573;49.592;8.662;2022-09-21T03:22:57;100723.38;;;6.12;100.00
11041;BME280;5573;49.592;8.662;2022-09-21T03:25:45;100727.91;;;6.08;100.00
11041;BME280;5573;49.592;8.662;2022-09-21T03:28:33;100726.94;;;6.04;100.00
11041;BME280;5573;49.592;8.662;2022-09-21T03:31:22;100731.75;;;6.07;100.00
11041;BME280;5573;49.592;8.662;2022-09-21T03:34:10;100732.88;;;6.06;100.00
11041;BME280;5573;49.592;8.662;2022-09-21T03:36:59;100728.88;;;6.03;100.00
11041;BME280;5573;49.592;8.662;2022-09-21T03:39:47;100738.66;;;6.04;100.00
11041;BME280;5573;49.592;8.662;2022-09-21T03:42:35;100737.72;;;6.00;100.00
11041;BME280;5573;49.592;8.662;2022-09-21T03:45:23;100742.38;;;6.00;100.00
11041;BME280;5573;49.592;8.662;2022-09-21T03:48:14;100747.19;;;6.03;100.00
11041;BME280;5573;49.592;8.662;2022-09-21T03:51:02;100741.25;;;6.01;100.00
11041;BME280;5573;49.592;8.662;2022-09-21T03:53:50;100736.94;;;6.00;100.00
11041;BME280;5573;49.592;8.662;2022-09-21T03:56:38;100739.34;;;6.01;100.00
11041;BME280;5573;49.592;8.662;2022-09-21T03:59:26;100740.81;;;5.99;100.00
11041;BME280;5573;49.592;8.662;2022-09-21T04:02:14;100735.34;;;5.99;100.00
11041;BME280;5573;49.592;8.662;2022-09-21T04:05:04;100742.19;;;6.14;100.00
11041;BME280;5573;49.592;8.662;2022-09-21T04:07:54;100740.00;;;6.28;100.00
11041;BME280;5573;49.592;8.662;2022-09-21T04:10:42;100741.28;;;6.30;100.00
11041;BME280;5573;49.592;8.662;2022-09-21T04:13:30;100738.09;;;6.28;100.00
11041;BME280;5573;49.592;8.662;2022-09-21T04:16:21;100748.59;;;6.47;100.00
11041;BME280;5573;49.592;8.662;2022-09-21T04:19:09;100746.25;;;6.58;100.00
11041;BME280;5573;49.592;8.662;2022-09-21T04:21:59;100741.38;;;6.64;100.00
11041;BME280;5573;49.592;8.662;2022-09-21T04:24:47;100732.06;;;6.65;100.00
11041;BME280;5573;49.592;8.662;2022-09-21T04:27:35;100741.22;;;6.69;100.00
11041;BME280;5573;49.592;8.662;2022-09-21T04:30:22;100741.69;;;6.71;100.00
11041;BME280;5573;49.592;8.662;2022-09-21T04:33:10;100740.06;;;6.70;100.00
11041;BME280;5573;49.592;8.662;2022-09-21T04:36:00;100744.66;;;6.78;100.00
11041;BME280;5573;49.592;8.662;2022-09-21T04:38:49;100750.13;;;6.78;100.00
11041;BME280;5573;49.592;8.662;2022-09-21T04:41:38;100743.34;;;6.84;100.00
11041;BME280;5573;49.592;8.662;2022-09-21T04:44:26;100737.78;;;6.72;100.00
11041;BME280;5573;49.592;8.662;2022-09-21T04:47:14;100750.41;;;6.64;100.00
11041;BME280;5573;49.592;8.662;2022-09-21T04:50:02;100746.91;;;6.55;100.00
11041;BME280;5573;49.592;8.662;2022-09-21T04:52:50;100751.81;;;6.41;100.00
11041;BME280;5573;49.592;8.662;2022-09-21T04:55:39;100756.81;;;6.39;100.00
11041;BME280;5573;49.592;8.662;2022-09-21T04:58:27;100755.38;;;6.41;100.00
11041;BME280;5573;49.592;8.662;2022-09-21T05:01:15;100761.31;;;6.43;100.00
11041;BME280;5573;49.592;8.662;2022-09-21T05:04:03;100763.69;;;6.45;100.00
11041;BME280;5573;49.592;8.662;2022-09-21T05:06:51;100765.09;;;6.51;100.00
11041;BME280;5573;49.592;8.662;2022-09-21T05:09:39;100772.19;;;6.52;100.00
11041;BME280;5573;49.592;8.662;2022-09-21T05:12:46;100775.88;;;6.56;100.00
11041;BME280;5573;49.592;8.662;2022-09-21T05:15:35;100771.25;;;6.48;100.00
11041;BME280;5573;49.592;8.662;2022-09-21T05:18:23;100784.44;;;6.46;100.00
11041;BME280;5573;49.592;8.662;2022-09-21T05:21:12;100771.56;;;6.46;100.00
11041;BME280;5573;49.592;8.662;2022-09-21T05:24:01;100772.66;;;6.54;100.00
11041;BME280;5573;49.592;8.662;2022-09-21T05:26:49;100786.59;;;6.61;100.00
11041;BME280;5573;49.592;8.662;2022-09-21T05:29:39;100793.34;;;6.64;100.00
11041;BME280;5573;49.592;8.662;2022-09-21T05:32:33;100789.00;;;6.63;100.00
11041;BME280;5573;49.592;8.662;2022-09-21T05:35:33;100792.53;;;6.63;100.00
11041;BME280;5573;49.592;8.662;2022-09-21T05:38:22;100795.94;;;6.60;100.00
11041;BME280;5573;49.592;8.662;2022-09-21T05:41:11;100793.53;;;6.59;100.00
11041;BME280;5573;49.592;8.662;2022-09-21T05:43:59;100798.72;;;6.51;100.00
11041;BME280;5573;49.592;8.662;2022-09-21T05:46:54;100802.91;;;6.49;100.00
11041;BME280;5573;49.592;8.662;2022-09-21T05:49:48;100803.91;;;6.44;100.00
11041;BME280;5573;49.592;8.662;2022-09-21T05:52:46;100802.81;;;6.37;100.00
11041;BME280;5573;49.592;8.662;2022-09-21T05:55:46;100800.88;;;6.37;100.00
11041;BME280;5573;49.592;8.662;2022-09-21T05:58:45;100806.34;;;6.37;100.00
11041;BME280;5573;49.592;8.662;2022-09-21T06:01:44;100800.22;;;6.40;100.00
11041;BME280;5573;49.592;8.662;2022-09-21T06:04:18;100805.16;;;6.47;100.00
11041;BME280;5573;49.592;8.662;2022-09-21T06:06:45;100805.94;;;6.56;100.00
11041;BME280;5573;49.592;8.662;2022-09-21T06:09:13;100813.94;;;6.61;100.00
11041;BME280;5573;49.592;8.662;2022-09-21T06:11:41;100813.34;;;6.77;100.00
11041;BME280;5573;49.592;8.662;2022-09-21T06:14:08;100807.31;;;6.92;100.00
11041;BME280;5573;49.592;8.662;2022-09-21T06:16:37;100809.00;;;7.05;100.00
11041;BME280;5573;49.592;8.662;2022-09-21T06:19:05;100810.31;;;7.20;100.00
11041;BME280;5573;49.592;8.662;2022-09-21T06:21:34;100807.09;;;7.39;100.00
11041;BME280;5573;49.592;8.662;2022-09-21T06:24:02;100816.06;;;7.48;100.00
11041;BME280;5573;49.592;8.662;2022-09-21T06:26:29;100812.97;;;7.50;100.00
11041;BME280;5573;49.592;8.662;2022-09-21T06:28:57;100809.50;;;7.62;100.00
11041;BME280;5573;49.592;8.662;2022-09-21T06:31:25;100821.63;;;7.73;100.00
11041;BME280;5573;49.592;8.662;2022-09-21T06:33:53;100817.41;;;7.76;100.00
11041;BME280;5573;49.592;8.662;2022-09-21T06:36:21;100823.13;;;7.83;100.00
11041;BME280;5573;49.592;8.662;2022-09-21T06:38:50;100809.44;;;7.83;100.00
11041;BME280;5573;49.592;8.662;2022-09-21T06:41:17;100831.84;;;7.97;100.00
11041;BME280;5573;49.592;8.662;2022-09-21T06:43:47;100830.50;;;8.03;100.00
11041;BME280;5573;49.592;8.662;2022-09-21T06:46:14;100824.47;;;8.10;100.00
11041;BME280;5573;49.592;8.662;2022-09-21T06:48:42;100836.69;;;8.12;100.00
11041;BME280;5573;49.592;8.662;2022-09-21T06:51:10;100833.38;;;8.19;100.00
11041;BME280;5573;49.592;8.662;2022-09-21T06:53:37;100835.81;;;8.33;100.00
11041;BME280;5573;49.592;8.662;2022-09-21T06:56:08;100833.53;;;8.35;100.00
11041;BME280;5573;49.592;8.662;2022-09-21T06:58:36;100841.56;;;8.52;100.00
11041;BME280;5573;49.592;8.662;2022-09-21T07:01:05;100834.25;;;8.57;100.00
11041;BME280;5573;49.592;8.662;2022-09-21T07:03:34;100841.78;;;8.72;100.00
11041;BME280;5573;49.592;8.662;2022-09-21T07:06:02;100837.53;;;8.87;100.00
11041;BME280;5573;49.592;8.662;2022-09-21T07:08:30;100800.28;;;8.73;100.00
11041;BME280;5573;49.592;8.662;2022-09-21T07:11:19;100843.78;;;9.12;100.00
11041;BME280;5573;49.592;8.662;2022-09-21T07:13:47;100842.81;;;9.32;100.00
11041;BME280;5573;49.592;8.662;2022-09-21T07:16:15;100833.50;;;9.49;100.00
11041;BME280;5573;49.592;8.662;2022-09-21T07:18:44;100846.25;;;9.70;100.00
11041;BME280;5573;49.592;8.662;2022-09-21T07:21:11;100839.25;;;9.88;100.00
11041;BME280;5573;49.592;8.662;2022-09-21T07:23:40;100851.59;;;9.94;100.00
11041;BME280;5573;49.592;8.662;2022-09-21T07:26:10;100849.22;;;9.93;100.00
11041;BME280;5573;49.592;8.662;2022-09-21T07:28:40;100843.63;;;10.05;100.00
11041;BME280;5573;49.592;8.662;2022-09-21T07:31:09;100792.44;;;9.69;100.00
11041;BME280;5573;49.592;8.662;2022-09-21T07:33:37;100855.00;;;10.20;100.00
11041;BME280;5573;49.592;8.662;2022-09-21T07:36:06;100845.19;;;10.34;100.00
11041;BME280;5573;49.592;8.662;2022-09-21T07:38:38;100851.78;;;10.46;100.00
11041;BME280;5573;49.592;8.662;2022-09-21T07:41:06;100855.03;;;10.51;100.00
11041;BME280;5573;49.592;8.662;2022-09-21T07:43:34;100855.50;;;10.53;100.00
11041;BME280;5573;49.592;8.662;2022-09-21T07:46:06;100849.28;;;10.56;100.00
11041;BME280;5573;49.592;8.662;2022-09-21T07:48:34;100850.44;;;10.71;100.00
11041;BME280;5573;49.592;8.662;2022-09-21T07:51:03;100845.66;;;10.88;100.00
11041;BME280;5573;49.592;8.662;2022-09-21T07:53:32;100847.06;;;11.13;100.00
11041;BME280;5573;49.592;8.662;2022-09-21T07:56:01;100847.34;;;11.28;100.00
11041;BME280;5573;49.592;8.662;2022-09-21T07:58:28;100847.19;;;11.21;100.00
11041;BME280;5573;49.592;8.662;2022-09-21T08:01:15;100852.38;;;11.42;100.00
11041;BME280;5573;49.592;8.662;2022-09-21T08:03:43;100858.75;;;11.46;100.00
11041;BME280;5573;49.592;8.662;2022-09-21T08:06:11;100853.88;;;11.58;100.00
11041;BME280;5573;49.592;8.662;2022-09-21T08:08:38;100844.72;;;11.74;100.00
11041;BME280;5573;49.592;8.662;2022-09-21T08:11:07;100848.78;;;11.80;100.00
11041;BME280;5573;49.592;8.662;2022-09-21T08:13:37;100857.50;;;12.02;100.00
11041;BME280;5573;49.592;8.662;2022-09-21T08:16:05;100858.44;;;12.09;100.00
11041;BME280;5573;49.592;8.662;2022-09-21T08:18:36;100862.13;;;12.17;100.00
11041;BME280;5573;49.592;8.662;2022-09-21T08:21:06;100858.69;;;12.24;100.00
11041;BME280;5573;49.592;8.662;2022-09-21T08:23:33;100861.19;;;12.55;100.00
11041;BME280;5573;49.592;8.662;2022-09-21T08:26:06;100856.63;;;12.67;100.00
11041;BME280;5573;49.592;8.662;2022-09-21T08:28:34;100864.50;;;12.91;100.00
11041;BME280;5573;49.592;8.662;2022-09-21T08:31:03;100866.75;;;12.82;100.00
11041;BME280;5573;49.592;8.662;2022-09-21T08:33:31;100857.88;;;12.96;100.00
11041;BME280;5573;49.592;8.662;2022-09-21T08:36:01;100861.06;;;12.98;100.00
11041;BME280;5573;49.592;8.662;2022-09-21T08:38:32;100854.31;;;12.95;100.00
11041;BME280;5573;49.592;8.662;2022-09-21T08:41:01;100815.22;;;12.67;100.00
11041;BME280;5573;49.592;8.662;2022-09-21T08:43:34;100853.97;;;13.27;100.00
11041;BME280;5573;49.592;8.662;2022-09-21T08:46:04;100869.22;;;13.44;100.00
11041;BME280;5573;49.592;8.662;2022-09-21T08:48:37;100865.28;;;13.45;100.00
11041;BME280;5573;49.592;8.662;2022-09-21T08:51:10;100815.03;;;13.36;100.00
11041;BME280;5573;49.592;8.662;2022-09-21T08:53:40;100863.66;;;13.74;100.00
11041;BME280;5573;49.592;8.662;2022-09-21T08:56:11;100855.50;;;13.85;100.00
11041;BME280;5573;49.592;8.662;2022-09-21T08:58:39;100854.34;;;13.90;99.16
11041;BME280;5573;49.592;8.662;2022-09-21T09:01:24;100853.88;;;13.84;97.83
11041;BME280;5573;49.592;8.662;2022-09-21T09:04:08;100845.38;;;14.00;100.00
11041;BME280;5573;49.592;8.662;2022-09-21T09:06:51;100845.63;;;14.29;100.00
11041;BME280;5573;49.592;8.662;2022-09-21T09:09:33;100841.28;;;14.28;99.48
11041;BME280;5573;49.592;8.662;2022-09-21T09:12:17;100842.13;;;14.35;100.00
11041;BME280;5573;49.592;8.662;2022-09-21T09:15:00;100845.72;;;14.39;96.98
11041;BME280;5573;49.592;8.662;2022-09-21T09:17:45;100843.38;;;14.41;96.64
11041;BME280;5573;49.592;8.662;2022-09-21T09:20:28;100837.00;;;14.37;94.27
11041;BME280;5573;49.592;8.662;2022-09-21T09:23:04;100831.66;;;14.55;97.36
11041;BME280;5573;49.592;8.662;2022-09-21T09:25:35;100837.31;;;14.70;95.92
11041;BME280;5573;49.592;8.662;2022-09-21T09:28:19;100833.09;;;14.94;94.12
11041;BME280;5573;49.592;8.662;2022-09-21T09:30:55;100828.06;;;15.10;91.59
11041;BME280;5573;49.592;8.662;2022-09-21T09:33:27;100823.78;;;15.27;89.84
11041;BME280;5573;49.592;8.662;2022-09-21T09:36:00;100827.00;;;15.40;91.32
11041;BME280;5573;49.592;8.662;2022-09-21T09:38:33;100828.22;;;15.53;92.08
11041;BME280;5573;49.592;8.662;2022-09-21T09:41:15;100837.00;;;15.62;85.77
11041;BME280;5573;49.592;8.662;2022-09-21T09:43:54;100829.84;;;15.61;86.85
11041;BME280;5573;49.592;8.662;2022-09-21T09:46:29;100826.38;;;15.86;82.76
11041;BME280;5573;49.592;8.662;2022-09-21T09:49:13;100828.34;;;15.82;83.67
11041;BME280;5573;49.592;8.662;2022-09-21T09:51:44;100816.06;;;15.79;81.78
11041;BME280;5573;49.592;8.662;2022-09-21T09:54:14;100816.88;;;15.80;83.37
11041;BME280;5573;49.592;8.662;2022-09-21T09:56:42;100811.34;;;16.05;78.46
11041;BME280;5573;49.592;8.662;2022-09-21T09:59:18;100816.06;;;15.83;78.73
11041;BME280;5573;49.592;8.662;2022-09-21T10:01:58;100805.41;;;15.92;76.17
11041;BME280;5573;49.592;8.662;2022-09-21T10:04:27;100808.59;;;16.23;77.52
11041;BME280;5573;49.592;8.662;2022-09-21T10:06:56;100807.81;;;16.30;74.00
11041;BME280;5573;49.592;8.662;2022-09-21T10:09:26;100810.19;;;16.28;71.29
11041;BME280;5573;49.592;8.662;2022-09-21T10:11:57;100809.38;;;16.41;69.16
11041;BME280;5573;49.592;8.662;2022-09-21T10:14:29;100793.47;;;16.71;69.75
11041;BME280;5573;49.592;8.662;2022-09-21T10:17:04;100800.63;;;16.61;68.21
11041;BME280;5573;49.592;8.662;2022-09-21T10:19:32;100798.69;;;16.11;67.38
11041;BME280;5573;49.592;8.662;2022-09-21T10:22:03;100792.72;;;15.98;67.63
11041;BME280;5573;49.592;8.662;2022-09-21T10:24:34;100792.28;;;15.89;70.88
11041;BME280;5573;49.592;8.662;2022-09-21T10:27:05;100791.94;;;16.26;67.12
11041;BME280;5573;49.592;8.662;2022-09-21T10:29:41;100789.94;;;16.52;65.29
11041;BME280;5573;49.592;8.662;2022-09-21T10:32:21;100787.94;;;16.74;65.59
11041;BME280;5573;49.592;8.662;2022-09-21T10:35:12;100785.75;;;17.36;63.47
11041;BME280;5573;49.592;8.662;2022-09-21T10:37:45;100792.66;;;17.83;58.72
11041;BME280;5573;49.592;8.662;2022-09-21T10:40:24;100800.63;;;17.85;57.46
11041;BME280;5573;49.592;8.662;2022-09-21T10:42:53;100795.63;;;18.14;55.97
11041;BME280;5573;49.592;8.662;2022-09-21T10:45:23;100782.34;;;18.36;56.40
11041;BME280;5573;49.592;8.662;2022-09-21T10:47:54;100782.56;;;18.53;55.48
11041;BME280;5573;49.592;8.662;2022-09-21T10:50:26;100785.94;;;18.75;55.46
11041;BME280;5573;49.592;8.662;2022-09-21T10:52:59;100778.38;;;18.75;56.05
11041;BME280;5573;49.592;8.662;2022-09-21T10:55:29;100757.63;;;18.83;54.62
11041;BME280;5573;49.592;8.662;2022-09-21T10:57:58;100767.00;;;18.97;54.63
11041;BME280;5573;49.592;8.662;2022-09-21T11:00:40;100766.75;;;19.18;52.09
11041;BME280;5573;49.592;8.662;2022-09-21T11:03:43;100757.41;;;19.01;54.94
11041;BME280;5573;49.592;8.662;2022-09-21T11:06:16;100754.53;;;18.33;55.78
11041;BME280;5573;49.592;8.662;2022-09-21T11:08:52;100771.75;;;17.54;56.87
11041;BME280;5573;49.592;8.662;2022-09-21T11:11:42;100753.59;;;17.98;56.65
11041;BME280;5573;49.592;8.662;2022-09-21T11:14:25;100764.59;;;18.61;56.65
11041;BME280;5573;49.592;8.662;2022-09-21T11:16:55;100755.84;;;18.59;57.26
11041;BME280;5573;49.592;8.662;2022-09-21T11:19:31;100757.22;;;18.85;54.55
11041;BME280;5573;49.592;8.662;2022-09-21T11:22:03;100754.91;;;19.11;53.99
11041;BME280;5573;49.592;8.662;2022-09-21T11:24:42;100752.63;;;19.02;53.13
11041;BME280;5573;49.592;8.662;2022-09-21T11:27:14;100746.75;;;18.93;53.57
11041;BME280;5573;49.592;8.662;2022-09-21T11:29:51;100734.31;;;19.32;53.12
11041;BME280;5573;49.592;8.662;2022-09-21T11:32:33;100736.84;;;19.49;51.95
11041;BME280;5573;49.592;8.662;2022-09-21T11:35:22;100728.91;;;19.48;52.88
11041;BME280;5573;49.592;8.662;2022-09-21T11:38:03;100736.38;;;19.27;52.30
11041;BME280;5573;49.592;8.662;2022-09-21T11:40:42;100741.13;;;19.58;46.79
11041;BME280;5573;49.592;8.662;2022-09-21T11:43:27;100742.94;;;19.72;46.66
11041;BME280;5573;49.592;8.662;2022-09-21T11:46:05;100749.69;;;19.74;44.71
11041;BME280;5573;49.592;8.662;2022-09-21T11:48:49;100744.16;;;19.40;44.15
11041;BME280;5573;49.592;8.662;2022-09-21T11:51:37;100741.03;;;19.03;44.72
11041;BME280;5573;49.592;8.662;2022-09-21T11:54:28;100733.31;;;18.84;44.85
11041;BME280;5573;49.592;8.662;2022-09-21T11:57:04;100728.69;;;18.70;44.27
11041;BME280;5573;49.592;8.662;2022-09-21T11:59:45;100726.41;;;18.58;46.17
11041;BME280;5573;49.592;8.662;2022-09-21T12:05:16;100726.34;;;17.71;46.47
11041;BME280;5573;49.592;8.662;2022-09-21T12:08:09;100726.34;;;17.71;47.37
11041;BME280;5573;49.592;8.662;2022-09-21T12:10:48;100722.78;;;18.19;47.29
11041;BME280;5573;49.592;8.662;2022-09-21T12:13:27;100717.16;;;18.68;44.93
11041;BME280;5573;49.592;8.662;2022-09-21T12:16:05;100716.94;;;18.89;42.90
11041;BME280;5573;49.592;8.662;2022-09-21T12:18:44;100714.00;;;19.00;43.58
11041;BME280;5573;49.592;8.662;2022-09-21T12:21:18;100708.53;;;19.20;43.38
11041;BME280;5573;49.592;8.662;2022-09-21T12:23:49;100713.97;;;19.04;43.84
11041;BME280;5573;49.592;8.662;2022-09-21T12:26:22;100705.78;;;18.89;43.96
11041;BME280;5573;49.592;8.662;2022-09-21T12:28:56;100696.38;;;19.07;44.54
11041;BME280;5573;49.592;8.662;2022-09-21T12:31:30;100709.78;;;19.19;44.03
11041;BME280;5573;49.592;8.662;2022-09-21T12:34:03;100695.38;;;18.94;41.64
11041;BME280;5573;49.592;8.662;2022-09-21T12:36:38;100699.94;;;18.77;43.18
11041;BME280;5573;49.592;8.662;2022-09-21T12:39:14;100700.78;;;19.08;42.61
11041;BME280;5573;49.592;8.662;2022-09-21T12:41:49;100696.91;;;19.29;42.13
11041;BME280;5573;49.592;8.662;2022-09-21T12:44:27;100693.53;;;18.80;41.64
11041;BME280;5573;49.592;8.662;2022-09-21T12:47:02;100702.13;;;18.17;44.83
11041;BME280;5573;49.592;8.662;2022-09-21T12:49:38;100703.03;;;17.47;45.44
11041;BME280;5573;49.592;8.662;2022-09-21T12:52:09;100699.63;;;17.21;46.76
11041;BME280;5573;49.592;8.662;2022-09-21T12:54:45;100692.13;;;17.18;46.22
11041;BME280;5573;49.592;8.662;2022-09-21T12:57:24;100682.63;;;17.68;45.88
11041;BME280;5573;49.592;8.662;2022-09-21T13:00:19;100676.94;;;18.31;46.47
11041;BME280;5573;49.592;8.662;2022-09-21T13:02:52;100691.13;;;18.82;45.35
11041;BME280;5573;49.592;8.662;2022-09-21T13:05:32;100686.53;;;18.99;42.71
11041;BME280;5573;49.592;8.662;2022-09-21T13:08:09;100692.56;;;19.24;41.79
11041;BME280;5573;49.592;8.662;2022-09-21T13:10:42;100670.13;;;19.04;43.37
11041;BME280;5573;49.592;8.662;2022-09-21T13:13:21;100689.31;;;18.99;41.38
11041;BME280;5573;49.592;8.662;2022-09-21T13:15:51;100683.19;;;19.11;42.91
11041;BME280;5573;49.592;8.662;2022-09-21T13:18:23;100687.63;;;19.36;41.74
11041;BME280;5573;49.592;8.662;2022-09-21T13:20:51;100671.84;;;19.53;41.71
11041;BME280;5573;49.592;8.662;2022-09-21T13:23:28;100677.72;;;19.85;43.03
11041;BME280;5573;49.592;8.662;2022-09-21T13:26:02;100675.78;;;20.26;41.26
11041;BME280;5573;49.592;8.662;2022-09-21T13:29:00;100669.94;;;20.40;40.94
11041;BME280;5573;49.592;8.662;2022-09-21T13:31:40;100680.88;;;19.87;41.09
11041;BME280;5573;49.592;8.662;2022-09-21T13:34:30;100666.47;;;19.89;40.83
11041;BME280;5573;49.592;8.662;2022-09-21T13:37:31;100669.47;;;19.51;40.06
11041;BME280;5573;49.592;8.662;2022-09-21T13:43:44;100660.41;;;19.16;41.98
11041;BME280;5573;49.592;8.662;2022-09-21T13:46:45;100658.88;;;19.39;42.60
11041;BME280;5573;49.592;8.662;2022-09-21T13:49:19;100655.88;;;19.53;40.59
11041;BME280;5573;49.592;8.662;2022-09-21T13:51:54;100661.81;;;19.82;40.96
11041;BME280;5573;49.592;8.662;2022-09-21T13:54:25;100656.34;;;19.75;40.59
11041;BME280;5573;49.592;8.662;2022-09-21T13:57:01;100654.06;;;19.66;41.23
11041;BME280;5573;49.592;8.662;2022-09-21T13:59:35;100655.47;;;19.27;41.17
11041;BME280;5573;49.592;8.662;2022-09-21T14:02:22;100651.38;;;19.36;41.42
11041;BME280;5573;49.592;8.662;2022-09-21T14:04:50;100650.06;;;19.44;42.18
11041;BME280;5573;49.592;8.662;2022-09-21T14:07:18;100645.81;;;19.05;41.92
11041;BME280;5573;49.592;8.662;2022-09-21T14:09:54;100646.38;;;19.23;41.45
11041;BME280;5573;49.592;8.662;2022-09-21T14:12:24;100648.25;;;19.30;41.59
11041;BME280;5573;49.592;8.662;2022-09-21T14:15:26;100643.53;;;19.27;41.00
11041;BME280;5573;49.592;8.662;2022-09-21T14:18:34;100647.88;;;19.01;39.95
11041;BME280;5573;49.592;8.662;2022-09-21T14:21:16;100643.88;;;19.02;41.42